sensor_id;sensor_type;location;lat;lon;timestamp;P1;durP1;ratioP1;P2;durP2;ratioP2
69878;SDS011;57161;43.136;24.706;2024-03-08T00:00:58;11.35;;;8.02;;
69878;SDS011;57161;43.136;24.706;2024-03-08T00:03:24;11.20;;;8.05;;
69878;SDS011;57161;43.136;24.706;2024-03-08T00:05:49;9.90;;;7.22;;
69878;SDS011;57161;43.136;24.706;2024-03-08T00:08:15;11.73;;;7.68;;
69878;SDS011;57161;43.136;24.706;2024-03-08T00:10:40;12.95;;;8.95;;
69878;SDS011;57161;43.136;24.706;2024-03-08T00:13:06;12.45;;;7.60;;
69878;SDS011;57161;43.136;24.706;2024-03-08T00:15:31;9.10;;;6.70;;
69878;SDS011;57161;43.136;24.706;2024-03-08T00:17:57;10.10;;;6.97;;
69878;SDS011;57161;43.136;24.706;2024-03-08T00:20:23;9.35;;;6.57;;
69878;SDS011;57161;43.136;24.706;2024-03-08T00:22:48;10.10;;;6.53;;
69878;SDS011;57161;43.136;24.706;2024-03-08T00:25:14;10.60;;;6.95;;
69878;SDS011;57161;43.136;24.706;2024-03-08T00:27:40;10.95;;;6.50;;
69878;SDS011;57161;43.136;24.706;2024-03-08T00:30:06;11.73;;;7.00;;
69878;SDS011;57161;43.136;24.706;2024-03-08T00:32:33;10.32;;;6.97;;
69878;SDS011;57161;43.136;24.706;2024-03-08T00:34:58;12.70;;;8.70;;
69878;SDS011;57161;43.136;24.706;2024-03-08T00:37:24;18.17;;;12.25;;
69878;SDS011;57161;43.136;24.706;2024-03-08T00:39:52;18.35;;;10.57;;
69878;SDS011;57161;43.136;24.706;2024-03-08T00:42:18;13.90;;;8.60;;
69878;SDS011;57161;43.136;24.706;2024-03-08T00:44:45;17.02;;;10.85;;
69878;SDS011;57161;43.136;24.706;2024-03-08T00:47:11;17.13;;;12.50;;
69878;SDS011;57161;43.136;24.706;2024-03-08T00:49:37;15.00;;;9.98;;
69878;SDS011;57161;43.136;24.706;2024-03-08T00:52:06;21.88;;;16.58;;
69878;SDS011;57161;43.136;24.706;2024-03-08T00:54:32;17.55;;;11.63;;
69878;SDS011;57161;43.136;24.706;2024-03-08T00:56:58;19.50;;;12.55;;
69878;SDS011;57161;43.136;24.706;2024-03-08T00:59:23;24.20;;;13.52;;
69878;SDS011;57161;43.136;24.706;2024-03-08T01:01:49;26.95;;;17.55;;
69878;SDS011;57161;43.136;24.706;2024-03-08T01:04:14;33.90;;;19.10;;
69878;SDS011;57161;43.136;24.706;2024-03-08T01:06:40;27.08;;;13.85;;
69878;SDS011;57161;43.136;24.706;2024-03-08T01:09:05;29.35;;;18.13;;
69878;SDS011;57161;43.136;24.706;2024-03-08T01:11:34;30.42;;;19.27;;
69878;SDS011;57161;43.136;24.706;2024-03-08T01:13:59;36.15;;;20.10;;
69878;SDS011;57161;43.136;24.706;2024-03-08T01:16:25;40.70;;;22.92;;
69878;SDS011;57161;43.136;24.706;2024-03-08T01:18:50;35.63;;;21.08;;
69878;SDS011;57161;43.136;24.706;2024-03-08T01:21:16;37.08;;;23.15;;
69878;SDS011;57161;43.136;24.706;2024-03-08T01:23:41;35.03;;;22.10;;
69878;SDS011;57161;43.136;24.706;2024-03-08T01:26:07;33.63;;;20.33;;
69878;SDS011;57161;43.136;24.706;2024-03-08T01:28:32;39.42;;;23.85;;
69878;SDS011;57161;43.136;24.706;2024-03-08T01:30:59;35.25;;;21.73;;
69878;SDS011;57161;43.136;24.706;2024-03-08T01:33:26;31.55;;;19.70;;
69878;SDS011;57161;43.136;24.706;2024-03-08T01:35:52;35.10;;;21.52;;
69878;SDS011;57161;43.136;24.706;2024-03-08T01:38:19;32.67;;;19.83;;
69878;SDS011;57161;43.136;24.706;2024-03-08T01:40:46;36.53;;;20.95;;
69878;SDS011;57161;43.136;24.706;2024-03-08T01:43:27;33.85;;;21.15;;
69878;SDS011;57161;43.136;24.706;2024-03-08T01:45:54;38.10;;;23.15;;
69878;SDS011;57161;43.136;24.706;2024-03-08T01:48:23;39.17;;;21.58;;
69878;SDS011;57161;43.136;24.706;2024-03-08T01:50:50;34.60;;;21.90;;
69878;SDS011;57161;43.136;24.706;2024-03-08T01:53:17;37.38;;;23.05;;
69878;SDS011;57161;43.136;24.706;2024-03-08T01:55:47;39.40;;;23.10;;
69878;SDS011;57161;43.136;24.706;2024-03-08T01:58:13;36.08;;;22.45;;
69878;SDS011;57161;43.136;24.706;2024-03-08T02:00:46;40.25;;;23.35;;
69878;SDS011;57161;43.136;24.706;2024-03-08T02:03:16;41.63;;;23.33;;
69878;SDS011;57161;43.136;24.706;2024-03-08T02:05:42;39.05;;;22.02;;
69878;SDS011;57161;43.136;24.706;2024-03-08T02:08:08;42.20;;;23.42;;
69878;SDS011;57161;43.136;24.706;2024-03-08T02:10:44;41.90;;;23.33;;
69878;SDS011;57161;43.136;24.706;2024-03-08T02:13:10;42.60;;;24.40;;
69878;SDS011;57161;43.136;24.706;2024-03-08T02:15:55;41.28;;;23.45;;
69878;SDS011;57161;43.136;24.706;2024-03-08T02:18:22;46.03;;;25.40;;
69878;SDS011;57161;43.136;24.706;2024-03-08T02:23:18;48.08;;;25.50;;
69878;SDS011;57161;43.136;24.706;2024-03-08T02:25:45;45.15;;;23.05;;
69878;SDS011;57161;43.136;24.706;2024-03-08T02:28:11;52.22;;;27.70;;
69878;SDS011;57161;43.136;24.706;2024-03-08T02:30:37;53.50;;;28.83;;
69878;SDS011;57161;43.136;24.706;2024-03-08T02:33:03;47.13;;;27.30;;
69878;SDS011;57161;43.136;24.706;2024-03-08T02:35:34;52.08;;;27.95;;
69878;SDS011;57161;43.136;24.706;2024-03-08T02:38:00;53.13;;;26.58;;
69878;SDS011;57161;43.136;24.706;2024-03-08T02:40:26;55.38;;;29.88;;
69878;SDS011;57161;43.136;24.706;2024-03-08T02:42:52;51.67;;;28.10;;
69878;SDS011;57161;43.136;24.706;2024-03-08T02:45:17;53.97;;;28.85;;
69878;SDS011;57161;43.136;24.706;2024-03-08T02:47:43;50.60;;;27.85;;
69878;SDS011;57161;43.136;24.706;2024-03-08T02:50:09;53.53;;;27.65;;
69878;SDS011;57161;43.136;24.706;2024-03-08T02:52:35;48.50;;;26.30;;
69878;SDS011;57161;43.136;24.706;2024-03-08T02:55:01;49.97;;;26.58;;
69878;SDS011;57161;43.136;24.706;2024-03-08T02:57:27;55.40;;;27.65;;
69878;SDS011;57161;43.136;24.706;2024-03-08T02:59:53;50.08;;;27.02;;
69878;SDS011;57161;43.136;24.706;2024-03-08T03:02:19;58.92;;;26.45;;
69878;SDS011;57161;43.136;24.706;2024-03-08T03:04:45;54.25;;;27.33;;
69878;SDS011;57161;43.136;24.706;2024-03-08T03:07:10;56.88;;;26.77;;
69878;SDS011;57161;43.136;24.706;2024-03-08T03:09:36;57.88;;;29.33;;
69878;SDS011;57161;43.136;24.706;2024-03-08T03:12:02;58.20;;;27.65;;
69878;SDS011;57161;43.136;24.706;2024-03-08T03:14:27;55.33;;;28.67;;
69878;SDS011;57161;43.136;24.706;2024-03-08T03:16:53;56.53;;;27.40;;
69878;SDS011;57161;43.136;24.706;2024-03-08T03:19:19;51.50;;;26.48;;
69878;SDS011;57161;43.136;24.706;2024-03-08T03:21:45;47.45;;;25.88;;
69878;SDS011;57161;43.136;24.706;2024-03-08T03:24:12;49.38;;;25.75;;
69878;SDS011;57161;43.136;24.706;2024-03-08T03:26:41;47.88;;;26.50;;
69878;SDS011;57161;43.136;24.706;2024-03-08T03:29:08;51.90;;;27.90;;
69878;SDS011;57161;43.136;24.706;2024-03-08T03:31:36;46.25;;;24.60;;
69878;SDS011;57161;43.136;24.706;2024-03-08T03:34:01;49.95;;;25.60;;
69878;SDS011;57161;43.136;24.706;2024-03-08T03:36:31;46.75;;;24.92;;
69878;SDS011;57161;43.136;24.706;2024-03-08T03:38:58;47.92;;;25.25;;
69878;SDS011;57161;43.136;24.706;2024-03-08T03:41:35;52.50;;;26.80;;
69878;SDS011;57161;43.136;24.706;2024-03-08T03:44:00;50.47;;;25.77;;
69878;SDS011;57161;43.136;24.706;2024-03-08T03:46:26;51.53;;;26.83;;
69878;SDS011;57161;43.136;24.706;2024-03-08T03:48:52;52.10;;;26.13;;
69878;SDS011;57161;43.136;24.706;2024-03-08T03:51:18;46.25;;;24.67;;
69878;SDS011;57161;43.136;24.706;2024-03-08T03:53:44;52.95;;;27.08;;
69878;SDS011;57161;43.136;24.706;2024-03-08T03:56:09;45.63;;;25.27;;
69878;SDS011;57161;43.136;24.706;2024-03-08T03:58:35;45.88;;;25.52;;
69878;SDS011;57161;43.136;24.706;2024-03-08T04:01:01;48.72;;;26.50;;
69878;SDS011;57161;43.136;24.706;2024-03-08T04:03:30;47.35;;;24.27;;
69878;SDS011;57161;43.136;24.706;2024-03-08T04:05:55;48.30;;;26.20;;
69878;SDS011;57161;43.136;24.706;2024-03-08T04:08:21;51.50;;;27.50;;
69878;SDS011;57161;43.136;24.706;2024-03-08T04:10:46;45.67;;;25.67;;
69878;SDS011;57161;43.136;24.706;2024-03-08T04:13:11;49.10;;;25.55;;
69878;SDS011;57161;43.136;24.706;2024-03-08T04:15:37;52.88;;;24.50;;
69878;SDS011;57161;43.136;24.706;2024-03-08T04:18:03;47.63;;;23.80;;
69878;SDS011;57161;43.136;24.706;2024-03-08T04:20:29;59.08;;;31.85;;
69878;SDS011;57161;43.136;24.706;2024-03-08T04:22:55;48.65;;;26.88;;
69878;SDS011;57161;43.136;24.706;2024-03-08T04:25:21;55.38;;;30.98;;
69878;SDS011;57161;43.136;24.706;2024-03-08T04:27:46;65.75;;;36.25;;
69878;SDS011;57161;43.136;24.706;2024-03-08T04:30:13;41.20;;;23.13;;
69878;SDS011;57161;43.136;24.706;2024-03-08T04:32:39;64.80;;;38.45;;
69878;SDS011;57161;43.136;24.706;2024-03-08T04:35:06;44.17;;;25.17;;
69878;SDS011;57161;43.136;24.706;2024-03-08T04:37:33;46.30;;;23.75;;
69878;SDS011;57161;43.136;24.706;2024-03-08T04:39:59;45.83;;;27.00;;
69878;SDS011;57161;43.136;24.706;2024-03-08T04:42:24;47.58;;;25.95;;
69878;SDS011;57161;43.136;24.706;2024-03-08T04:44:51;47.50;;;26.23;;
69878;SDS011;57161;43.136;24.706;2024-03-08T04:47:18;48.25;;;24.58;;
69878;SDS011;57161;43.136;24.706;2024-03-08T04:49:44;49.10;;;25.40;;
69878;SDS011;57161;43.136;24.706;2024-03-08T04:52:09;46.05;;;25.67;;
69878;SDS011;57161;43.136;24.706;2024-03-08T04:54:35;48.35;;;27.02;;
69878;SDS011;57161;43.136;24.706;2024-03-08T04:57:00;42.00;;;24.67;;
69878;SDS011;57161;43.136;24.706;2024-03-08T04:59:26;45.92;;;27.58;;
69878;SDS011;57161;43.136;24.706;2024-03-08T05:01:52;69.10;;;36.45;;
69878;SDS011;57161;43.136;24.706;2024-03-08T05:04:18;111.00;;;55.50;;
69878;SDS011;57161;43.136;24.706;2024-03-08T05:06:43;79.18;;;41.40;;
69878;SDS011;57161;43.136;24.706;2024-03-08T05:09:09;59.33;;;32.10;;
69878;SDS011;57161;43.136;24.706;2024-03-08T05:11:41;69.60;;;36.33;;
69878;SDS011;57161;43.136;24.706;2024-03-08T05:14:08;51.55;;;26.77;;
69878;SDS011;57161;43.136;24.706;2024-03-08T05:16:33;52.63;;;29.40;;
69878;SDS011;57161;43.136;24.706;2024-03-08T05:18:59;58.15;;;31.63;;
69878;SDS011;57161;43.136;24.706;2024-03-08T05:21:24;107.60;;;60.67;;
69878;SDS011;57161;43.136;24.706;2024-03-08T05:23:50;69.65;;;37.10;;
69878;SDS011;57161;43.136;24.706;2024-03-08T05:26:16;76.53;;;43.65;;
69878;SDS011;57161;43.136;24.706;2024-03-08T05:28:42;64.53;;;34.50;;
69878;SDS011;57161;43.136;24.706;2024-03-08T05:31:08;49.28;;;28.38;;
69878;SDS011;57161;43.136;24.706;2024-03-08T05:33:33;47.22;;;26.23;;
69878;SDS011;57161;43.136;24.706;2024-03-08T05:36:00;56.35;;;30.80;;
69878;SDS011;57161;43.136;24.706;2024-03-08T05:38:28;59.30;;;32.08;;
69878;SDS011;57161;43.136;24.706;2024-03-08T05:40:54;55.50;;;31.90;;
69878;SDS011;57161;43.136;24.706;2024-03-08T05:43:20;56.15;;;32.80;;
69878;SDS011;57161;43.136;24.706;2024-03-08T05:45:46;54.80;;;30.85;;
69878;SDS011;57161;43.136;24.706;2024-03-08T05:48:13;57.70;;;32.95;;
69878;SDS011;57161;43.136;24.706;2024-03-08T05:50:38;65.68;;;37.92;;
69878;SDS011;57161;43.136;24.706;2024-03-08T05:53:04;55.50;;;30.55;;
69878;SDS011;57161;43.136;24.706;2024-03-08T05:55:32;54.55;;;31.23;;
69878;SDS011;57161;43.136;24.706;2024-03-08T05:58:01;56.40;;;29.33;;
69878;SDS011;57161;43.136;24.706;2024-03-08T06:00:27;56.10;;;31.60;;
69878;SDS011;57161;43.136;24.706;2024-03-08T06:02:52;59.42;;;32.30;;
69878;SDS011;57161;43.136;24.706;2024-03-08T06:05:18;47.75;;;24.63;;
69878;SDS011;57161;43.136;24.706;2024-03-08T06:07:43;51.95;;;28.40;;
69878;SDS011;57161;43.136;24.706;2024-03-08T06:10:09;45.38;;;25.60;;
69878;SDS011;57161;43.136;24.706;2024-03-08T06:12:37;58.15;;;31.48;;
69878;SDS011;57161;43.136;24.706;2024-03-08T06:15:06;49.45;;;27.60;;
69878;SDS011;57161;43.136;24.706;2024-03-08T06:17:34;54.50;;;33.58;;
69878;SDS011;57161;43.136;24.706;2024-03-08T06:20:00;54.47;;;32.10;;
69878;SDS011;57161;43.136;24.706;2024-03-08T06:22:25;70.78;;;40.97;;
69878;SDS011;57161;43.136;24.706;2024-03-08T06:24:51;55.47;;;33.22;;
69878;SDS011;57161;43.136;24.706;2024-03-08T06:27:17;51.05;;;29.08;;
69878;SDS011;57161;43.136;24.706;2024-03-08T06:29:42;53.53;;;31.88;;
69878;SDS011;57161;43.136;24.706;2024-03-08T06:32:08;67.32;;;39.42;;
69878;SDS011;57161;43.136;24.706;2024-03-08T06:34:34;54.08;;;32.83;;
69878;SDS011;57161;43.136;24.706;2024-03-08T06:36:59;54.22;;;31.13;;
69878;SDS011;57161;43.136;24.706;2024-03-08T06:39:26;47.08;;;28.42;;
69878;SDS011;57161;43.136;24.706;2024-03-08T06:41:53;40.30;;;24.35;;
69878;SDS011;57161;43.136;24.706;2024-03-08T06:44:19;40.72;;;22.85;;
69878;SDS011;57161;43.136;24.706;2024-03-08T06:46:46;39.83;;;24.27;;
69878;SDS011;57161;43.136;24.706;2024-03-08T06:49:13;38.55;;;22.73;;
69878;SDS011;57161;43.136;24.706;2024-03-08T06:51:40;40.13;;;24.02;;
69878;SDS011;57161;43.136;24.706;2024-03-08T06:54:06;45.15;;;25.83;;
69878;SDS011;57161;43.136;24.706;2024-03-08T06:56:34;48.05;;;28.35;;
69878;SDS011;57161;43.136;24.706;2024-03-08T06:58:59;43.60;;;25.88;;
69878;SDS011;57161;43.136;24.706;2024-03-08T07:01:25;42.03;;;25.80;;
69878;SDS011;57161;43.136;24.706;2024-03-08T07:03:51;49.38;;;31.55;;
69878;SDS011;57161;43.136;24.706;2024-03-08T07:06:17;31.52;;;18.83;;
69878;SDS011;57161;43.136;24.706;2024-03-08T07:08:44;116.50;;;72.68;;
69878;SDS011;57161;43.136;24.706;2024-03-08T07:11:11;39.63;;;21.73;;
69878;SDS011;57161;43.136;24.706;2024-03-08T07:13:37;35.78;;;24.23;;
69878;SDS011;57161;43.136;24.706;2024-03-08T07:16:04;52.70;;;36.15;;
69878;SDS011;57161;43.136;24.706;2024-03-08T07:18:30;41.10;;;26.10;;
69878;SDS011;57161;43.136;24.706;2024-03-08T07:20:56;39.25;;;25.45;;
69878;SDS011;57161;43.136;24.706;2024-03-08T07:23:22;37.75;;;23.58;;
69878;SDS011;57161;43.136;24.706;2024-03-08T07:26:05;44.50;;;22.38;;
69878;SDS011;57161;43.136;24.706;2024-03-08T07:28:31;37.10;;;23.58;;
69878;SDS011;57161;43.136;24.706;2024-03-08T07:30:57;39.22;;;25.25;;
69878;SDS011;57161;43.136;24.706;2024-03-08T07:33:41;67.57;;;44.63;;
69878;SDS011;57161;43.136;24.706;2024-03-08T07:36:07;56.33;;;35.25;;
69878;SDS011;57161;43.136;24.706;2024-03-08T07:38:33;87.93;;;55.15;;
69878;SDS011;57161;43.136;24.706;2024-03-08T07:40:59;91.90;;;58.50;;
69878;SDS011;57161;43.136;24.706;2024-03-08T07:43:25;58.13;;;34.88;;
69878;SDS011;57161;43.136;24.706;2024-03-08T07:45:51;59.20;;;34.53;;
69878;SDS011;57161;43.136;24.706;2024-03-08T07:48:18;59.05;;;33.40;;
69878;SDS011;57161;43.136;24.706;2024-03-08T07:50:43;51.25;;;31.67;;
69878;SDS011;57161;43.136;24.706;2024-03-08T07:53:09;71.90;;;45.00;;
69878;SDS011;57161;43.136;24.706;2024-03-08T07:55:35;57.25;;;30.90;;
69878;SDS011;57161;43.136;24.706;2024-03-08T07:58:04;59.75;;;34.22;;
69878;SDS011;57161;43.136;24.706;2024-03-08T08:00:29;55.95;;;34.85;;
69878;SDS011;57161;43.136;24.706;2024-03-08T08:02:56;56.20;;;31.48;;
69878;SDS011;57161;43.136;24.706;2024-03-08T08:05:22;53.20;;;32.00;;
69878;SDS011;57161;43.136;24.706;2024-03-08T08:07:47;61.45;;;39.03;;
69878;SDS011;57161;43.136;24.706;2024-03-08T08:10:13;60.13;;;34.00;;
69878;SDS011;57161;43.136;24.706;2024-03-08T08:12:44;81.03;;;48.85;;
69878;SDS011;57161;43.136;24.706;2024-03-08T08:15:10;64.80;;;38.00;;
69878;SDS011;57161;43.136;24.706;2024-03-08T08:17:36;60.47;;;35.60;;
69878;SDS011;57161;43.136;24.706;2024-03-08T08:20:01;61.53;;;34.03;;
69878;SDS011;57161;43.136;24.706;2024-03-08T08:22:30;71.07;;;42.20;;
69878;SDS011;57161;43.136;24.706;2024-03-08T08:24:55;76.55;;;44.45;;
69878;SDS011;57161;43.136;24.706;2024-03-08T08:27:21;57.13;;;31.88;;
69878;SDS011;57161;43.136;24.706;2024-03-08T08:29:46;91.57;;;51.53;;
69878;SDS011;57161;43.136;24.706;2024-03-08T08:32:12;90.40;;;44.00;;
69878;SDS011;57161;43.136;24.706;2024-03-08T08:34:38;258.40;;;113.95;;
69878;SDS011;57161;43.136;24.706;2024-03-08T08:37:03;94.57;;;47.75;;
69878;SDS011;57161;43.136;24.706;2024-03-08T08:39:29;125.43;;;61.42;;
69878;SDS011;57161;43.136;24.706;2024-03-08T08:41:54;70.75;;;40.00;;
69878;SDS011;57161;43.136;24.706;2024-03-08T08:44:20;67.60;;;37.25;;
69878;SDS011;57161;43.136;24.706;2024-03-08T08:46:45;83.65;;;46.13;;
69878;SDS011;57161;43.136;24.706;2024-03-08T08:49:11;164.02;;;81.65;;
69878;SDS011;57161;43.136;24.706;2024-03-08T08:51:39;100.47;;;53.60;;
69878;SDS011;57161;43.136;24.706;2024-03-08T08:54:05;63.65;;;35.10;;
69878;SDS011;57161;43.136;24.706;2024-03-08T08:56:31;67.32;;;39.33;;
69878;SDS011;57161;43.136;24.706;2024-03-08T08:58:57;66.30;;;34.30;;
69878;SDS011;57161;43.136;24.706;2024-03-08T09:01:23;59.42;;;33.63;;
69878;SDS011;57161;43.136;24.706;2024-03-08T09:03:48;68.22;;;33.42;;
69878;SDS011;57161;43.136;24.706;2024-03-08T09:06:15;65.05;;;35.63;;
69878;SDS011;57161;43.136;24.706;2024-03-08T09:08:41;75.68;;;39.75;;
69878;SDS011;57161;43.136;24.706;2024-03-08T09:11:07;85.10;;;43.40;;
69878;SDS011;57161;43.136;24.706;2024-03-08T09:13:32;74.00;;;37.22;;
69878;SDS011;57161;43.136;24.706;2024-03-08T09:16:04;75.00;;;40.47;;
69878;SDS011;57161;43.136;24.706;2024-03-08T09:18:31;85.68;;;46.03;;
69878;SDS011;57161;43.136;24.706;2024-03-08T09:21:00;93.97;;;53.88;;
69878;SDS011;57161;43.136;24.706;2024-03-08T09:23:25;63.35;;;33.40;;
69878;SDS011;57161;43.136;24.706;2024-03-08T09:25:55;69.70;;;37.38;;
69878;SDS011;57161;43.136;24.706;2024-03-08T09:28:22;92.53;;;49.20;;
69878;SDS011;57161;43.136;24.706;2024-03-08T09:30:48;65.20;;;35.92;;
69878;SDS011;57161;43.136;24.706;2024-03-08T09:33:14;94.22;;;49.72;;
69878;SDS011;57161;43.136;24.706;2024-03-08T09:35:44;120.88;;;63.08;;
69878;SDS011;57161;43.136;24.706;2024-03-08T09:38:12;81.40;;;43.88;;
69878;SDS011;57161;43.136;24.706;2024-03-08T09:40:38;176.20;;;83.47;;
69878;SDS011;57161;43.136;24.706;2024-03-08T09:43:06;106.88;;;51.72;;
69878;SDS011;57161;43.136;24.706;2024-03-08T09:45:32;136.57;;;65.20;;
69878;SDS011;57161;43.136;24.706;2024-03-08T09:48:01;105.85;;;51.42;;
69878;SDS011;57161;43.136;24.706;2024-03-08T09:50:27;71.25;;;37.38;;
69878;SDS011;57161;43.136;24.706;2024-03-08T09:52:54;61.40;;;33.25;;
69878;SDS011;57161;43.136;24.706;2024-03-08T09:55:22;70.85;;;37.83;;
69878;SDS011;57161;43.136;24.706;2024-03-08T09:57:47;73.63;;;38.47;;
69878;SDS011;57161;43.136;24.706;2024-03-08T10:00:32;79.50;;;40.58;;
69878;SDS011;57161;43.136;24.706;2024-03-08T10:03:01;102.32;;;52.92;;
69878;SDS011;57161;43.136;24.706;2024-03-08T10:05:27;84.53;;;42.08;;
69878;SDS011;57161;43.136;24.706;2024-03-08T10:07:53;59.63;;;31.67;;
69878;SDS011;57161;43.136;24.706;2024-03-08T10:10:18;67.38;;;33.17;;
69878;SDS011;57161;43.136;24.706;2024-03-08T10:12:44;68.13;;;34.50;;
69878;SDS011;57161;43.136;24.706;2024-03-08T10:15:10;97.15;;;45.17;;
69878;SDS011;57161;43.136;24.706;2024-03-08T10:17:37;77.40;;;39.72;;
69878;SDS011;57161;43.136;24.706;2024-03-08T10:20:13;80.65;;;43.30;;
69878;SDS011;57161;43.136;24.706;2024-03-08T10:22:40;121.40;;;61.85;;
69878;SDS011;57161;43.136;24.706;2024-03-08T10:25:09;97.05;;;51.40;;
69878;SDS011;57161;43.136;24.706;2024-03-08T10:27:38;86.47;;;45.40;;
69878;SDS011;57161;43.136;24.706;2024-03-08T10:30:12;65.07;;;32.58;;
69878;SDS011;57161;43.136;24.706;2024-03-08T10:32:40;56.33;;;29.35;;
69878;SDS011;57161;43.136;24.706;2024-03-08T10:35:09;69.25;;;36.13;;
69878;SDS011;57161;43.136;24.706;2024-03-08T10:40:16;73.85;;;39.03;;
69878;SDS011;57161;43.136;24.706;2024-03-08T10:42:53;72.88;;;37.53;;
69878;SDS011;57161;43.136;24.706;2024-03-08T10:48:20;68.55;;;35.72;;
69878;SDS011;57161;43.136;24.706;2024-03-08T10:51:03;65.25;;;34.67;;
69878;SDS011;57161;43.136;24.706;2024-03-08T10:53:30;70.65;;;36.85;;
69878;SDS011;57161;43.136;24.706;2024-03-08T10:55:58;79.70;;;42.45;;
69878;SDS011;57161;43.136;24.706;2024-03-08T10:58:24;66.43;;;34.45;;
69878;SDS011;57161;43.136;24.706;2024-03-08T11:00:52;69.25;;;37.15;;
69878;SDS011;57161;43.136;24.706;2024-03-08T11:04:04;108.60;;;50.80;;
69878;SDS011;57161;43.136;24.706;2024-03-08T11:06:17;81.25;;;38.17;;
69878;SDS011;57161;43.136;24.706;2024-03-08T11:08:46;249.00;;;105.40;;
69878;SDS011;57161;43.136;24.706;2024-03-08T11:13:57;86.95;;;48.22;;
69878;SDS011;57161;43.136;24.706;2024-03-08T11:19:06;116.88;;;55.80;;
69878;SDS011;57161;43.136;24.706;2024-03-08T11:21:56;69.88;;;37.05;;
69878;SDS011;57161;43.136;24.706;2024-03-08T11:24:23;71.15;;;36.75;;
69878;SDS011;57161;43.136;24.706;2024-03-08T11:26:48;109.85;;;55.28;;
69878;SDS011;57161;43.136;24.706;2024-03-08T11:32:07;79.97;;;42.47;;
69878;SDS011;57161;43.136;24.706;2024-03-08T11:34:40;72.30;;;36.88;;
69878;SDS011;57161;43.136;24.706;2024-03-08T11:37:13;81.03;;;41.72;;
69878;SDS011;57161;43.136;24.706;2024-03-08T11:39:40;79.15;;;41.10;;
69878;SDS011;57161;43.136;24.706;2024-03-08T11:42:12;89.85;;;43.30;;
69878;SDS011;57161;43.136;24.706;2024-03-08T11:44:37;82.32;;;43.05;;
69878;SDS011;57161;43.136;24.706;2024-03-08T11:47:08;79.15;;;39.13;;
69878;SDS011;57161;43.136;24.706;2024-03-08T11:49:35;84.85;;;42.17;;
69878;SDS011;57161;43.136;24.706;2024-03-08T11:52:01;97.10;;;44.58;;
69878;SDS011;57161;43.136;24.706;2024-03-08T11:54:28;90.93;;;43.38;;
69878;SDS011;57161;43.136;24.706;2024-03-08T11:56:55;92.88;;;46.10;;
69878;SDS011;57161;43.136;24.706;2024-03-08T11:59:26;87.97;;;40.20;;
69878;SDS011;57161;43.136;24.706;2024-03-08T12:02:03;111.43;;;48.50;;
69878;SDS011;57161;43.136;24.706;2024-03-08T12:04:32;78.57;;;38.60;;
69878;SDS011;57161;43.136;24.706;2024-03-08T12:07:01;77.75;;;40.03;;
69878;SDS011;57161;43.136;24.706;2024-03-08T12:09:27;95.28;;;46.72;;
69878;SDS011;57161;43.136;24.706;2024-03-08T12:11:53;92.75;;;46.45;;
69878;SDS011;57161;43.136;24.706;2024-03-08T12:14:19;79.57;;;38.80;;
69878;SDS011;57161;43.136;24.706;2024-03-08T12:16:45;91.32;;;46.05;;
69878;SDS011;57161;43.136;24.706;2024-03-08T12:19:11;106.82;;;53.55;;
69878;SDS011;57161;43.136;24.706;2024-03-08T12:21:37;78.72;;;40.75;;
69878;SDS011;57161;43.136;24.706;2024-03-08T12:24:10;94.15;;;45.00;;
69878;SDS011;57161;43.136;24.706;2024-03-08T12:26:36;81.55;;;41.30;;
69878;SDS011;57161;43.136;24.706;2024-03-08T12:29:15;109.00;;;51.25;;
69878;SDS011;57161;43.136;24.706;2024-03-08T12:31:51;89.78;;;44.53;;
69878;SDS011;57161;43.136;24.706;2024-03-08T12:34:18;84.30;;;41.95;;
69878;SDS011;57161;43.136;24.706;2024-03-08T12:36:47;96.93;;;44.60;;
69878;SDS011;57161;43.136;24.706;2024-03-08T12:39:18;76.00;;;38.10;;
69878;SDS011;57161;43.136;24.706;2024-03-08T12:41:48;84.50;;;43.08;;
69878;SDS011;57161;43.136;24.706;2024-03-08T12:44:14;94.93;;;46.03;;
69878;SDS011;57161;43.136;24.706;2024-03-08T12:46:40;101.10;;;46.08;;
69878;SDS011;57161;43.136;24.706;2024-03-08T12:49:08;171.73;;;80.28;;
69878;SDS011;57161;43.136;24.706;2024-03-08T12:51:35;148.50;;;68.72;;
69878;SDS011;57161;43.136;24.706;2024-03-08T12:54:01;110.13;;;52.35;;
69878;SDS011;57161;43.136;24.706;2024-03-08T12:56:34;131.32;;;58.53;;
69878;SDS011;57161;43.136;24.706;2024-03-08T12:59:02;150.35;;;63.28;;
69878;SDS011;57161;43.136;24.706;2024-03-08T13:01:28;97.80;;;48.50;;
69878;SDS011;57161;43.136;24.706;2024-03-08T13:03:57;104.45;;;50.25;;
69878;SDS011;57161;43.136;24.706;2024-03-08T13:06:27;100.32;;;47.08;;
69878;SDS011;57161;43.136;24.706;2024-03-08T13:08:54;115.43;;;55.53;;
69878;SDS011;57161;43.136;24.706;2024-03-08T13:11:23;86.55;;;40.47;;
69878;SDS011;57161;43.136;24.706;2024-03-08T13:13:49;120.00;;;56.90;;
69878;SDS011;57161;43.136;24.706;2024-03-08T13:16:15;103.82;;;48.45;;
69878;SDS011;57161;43.136;24.706;2024-03-08T13:18:42;157.63;;;70.40;;
69878;SDS011;57161;43.136;24.706;2024-03-08T13:21:07;262.23;;;119.28;;
69878;SDS011;57161;43.136;24.706;2024-03-08T13:23:34;110.32;;;51.75;;
69878;SDS011;57161;43.136;24.706;2024-03-08T13:26:09;73.22;;;36.30;;
69878;SDS011;57161;43.136;24.706;2024-03-08T13:28:48;98.72;;;48.65;;
69878;SDS011;57161;43.136;24.706;2024-03-08T13:31:19;135.68;;;61.83;;
69878;SDS011;57161;43.136;24.706;2024-03-08T13:33:45;90.28;;;45.63;;
69878;SDS011;57161;43.136;24.706;2024-03-08T13:36:12;146.75;;;79.97;;
69878;SDS011;57161;43.136;24.706;2024-03-08T13:38:44;124.32;;;63.17;;
69878;SDS011;57161;43.136;24.706;2024-03-08T13:41:11;105.60;;;51.80;;
69878;SDS011;57161;43.136;24.706;2024-03-08T13:43:39;158.10;;;78.95;;
69878;SDS011;57161;43.136;24.706;2024-03-08T13:46:08;92.95;;;42.92;;
69878;SDS011;57161;43.136;24.706;2024-03-08T13:48:35;169.90;;;90.70;;
69878;SDS011;57161;43.136;24.706;2024-03-08T13:51:02;198.77;;;103.05;;
69878;SDS011;57161;43.136;24.706;2024-03-08T13:53:29;109.45;;;55.97;;
69878;SDS011;57161;43.136;24.706;2024-03-08T13:55:55;163.35;;;89.70;;
69878;SDS011;57161;43.136;24.706;2024-03-08T13:58:21;99.70;;;51.58;;
69878;SDS011;57161;43.136;24.706;2024-03-08T14:00:47;128.50;;;70.35;;
69878;SDS011;57161;43.136;24.706;2024-03-08T14:03:13;131.90;;;66.85;;
69878;SDS011;57161;43.136;24.706;2024-03-08T14:05:39;82.00;;;41.75;;
69878;SDS011;57161;43.136;24.706;2024-03-08T14:08:06;92.20;;;46.05;;
69878;SDS011;57161;43.136;24.706;2024-03-08T14:10:33;73.63;;;37.38;;
69878;SDS011;57161;43.136;24.706;2024-03-08T14:12:59;106.78;;;49.05;;
69878;SDS011;57161;43.136;24.706;2024-03-08T14:15:25;84.00;;;40.50;;
69878;SDS011;57161;43.136;24.706;2024-03-08T14:17:54;87.43;;;41.75;;
69878;SDS011;57161;43.136;24.706;2024-03-08T14:20:21;93.25;;;44.83;;
69878;SDS011;57161;43.136;24.706;2024-03-08T14:22:53;118.80;;;63.20;;
69878;SDS011;57161;43.136;24.706;2024-03-08T14:25:20;83.18;;;38.88;;